Time;durP1;ratioP1;P1;durP2;ratioP2;P2;SDS_P1;SDS_P2;PMS_P1;PMS_P2;Temp;Humidity;BMP_temperature;BMP_pressure;BME280_temperature;BME280_humidity;BME280_pressure;Samples;Min_cycle;Max_cycle;Signal;HPM_P1;HPM_P2
2022/07/27 00:01:28;;;;;;;6.22;2.88;;;;;;;;;;4986198;28;20235;-88
2022/07/27 00:03:56;;;;;;;4.07;2.50;;;;;;;;;;4993145;28;20298;-87
2022/07/27 00:06:24;;;;;;;4.40;2.60;;;;;;;;;;4993555;28;20223;-87
2022/07/27 00:08:51;;;;;;;5.03;2.63;;;;;;;;;;4987288;28;20262;-87
2022/07/27 00:11:18;;;;;;;5.35;2.50;;;;;;;;;;4988334;28;20245;-87
2022/07/27 00:13:49;;;;;;;9.02;3.53;;;;;;;;;;4977626;28;20244;-87
2022/07/27 00:16:16;;;;;;;4.05;2.72;;;;;;;;;;4976972;28;20227;-87
2022/07/27 00:18:43;;;;;;;5.85;2.90;;;;;;;;;;4978281;28;20230;-86
2022/07/27 00:21:12;;;;;;;6.25;2.80;;;;;;;;;;4979753;28;20235;-87
2022/07/27 00:23:39;;;;;;;4.70;2.60;;;;;;;;;;4991206;28;20727;-87
2022/07/27 00:26:07;;;;;;;7.70;2.97;;;;;;;;;;4989287;28;20722;-87
2022/07/27 00:28:34;;;;;;;5.35;2.83;;;;;;;;;;4989143;28;20215;-87
2022/07/27 00:31:04;;;;;;;7.63;3.70;;;;;;;;;;4988103;28;20203;-87
2022/07/27 00:33:31;;;;;;;6.93;3.08;;;;;;;;;;4989979;28;20271;-88
2022/07/27 00:35:58;;;;;;;6.22;3.10;;;;;;;;;;4975801;28;20306;-88
2022/07/27 00:38:27;;;;;;;6.43;3.28;;;;;;;;;;4980652;28;20215;-87
2022/07/27 00:40:56;;;;;;;6.93;3.50;;;;;;;;;;4978471;28;20254;-88
2022/07/27 00:43:24;;;;;;;6.28;3.13;;;;;;;;;;4991209;28;20211;-87
2022/07/27 00:45:51;;;;;;;6.95;3.28;;;;;;;;;;4979928;28;20258;-87
2022/07/27 00:48:18;;;;;;;6.05;3.08;;;;;;;;;;4992066;28;20215;-86
2022/07/27 00:50:48;;;;;;;7.95;3.58;;;;;;;;;;4984719;28;20235;-87
2022/07/27 00:53:16;;;;;;;6.18;2.88;;;;;;;;;;4982326;28;20298;-87
2022/07/27 00:55:45;;;;;;;6.88;3.00;;;;;;;;;;4980490;28;20207;-88
2022/07/27 00:58:13;;;;;;;6.25;3.00;;;;;;;;;;4976074;28;20211;-87
2022/07/27 01:00:40;;;;;;;5.28;2.58;;;;;;;;;;4977878;28;20231;-88
2022/07/27 01:03:08;;;;;;;6.03;2.95;;;;;;;;;;4986654;28;20213;-88
2022/07/27 01:05:36;;;;;;;5.82;3.17;;;;;;;;;;4992325;28;20314;-87
2022/07/27 01:08:07;;;;;;;5.82;3.00;;;;;;;;;;4973507;28;20200;-88
2022/07/27 01:10:34;;;;;;;3.42;2.60;;;;;;;;;;4973493;28;20232;-88
2022/07/27 01:13:03;;;;;;;5.60;3.17;;;;;;;;;;4973483;28;20295;-88
2022/07/27 01:15:31;;;;;;;4.93;3.13;;;;;;;;;;4973538;28;20687;-88
2022/07/27 01:17:58;;;;;;;4.47;2.70;;;;;;;;;;4973594;28;20813;-88
2022/07/27 01:20:27;;;;;;;5.40;2.80;;;;;;;;;;4973501;28;20235;-88
2022/07/27 01:22:56;;;;;;;5.72;2.90;;;;;;;;;;4973162;28;20210;-88
2022/07/27 01:25:23;;;;;;;3.58;2.50;;;;;;;;;;4973114;28;20220;-88
2022/07/27 01:27:51;;;;;;;4.70;2.95;;;;;;;;;;4977497;28;20207;-88
2022/07/27 01:30:29;;;;;;;6.55;3.10;;;;;;;;;;4982136;28;20326;-88
2022/07/27 01:33:00;;;;;;;4.22;2.63;;;;;;;;;;4985237;28;20203;-88
2022/07/27 01:35:28;;;;;;;4.68;2.42;;;;;;;;;;4973624;28;20267;-88
2022/07/27 01:37:57;;;;;;;4.45;2.65;;;;;;;;;;4979472;28;20238;-88
2022/07/27 01:40:28;;;;;;;4.30;2.65;;;;;;;;;;4972856;28;20279;-87
2022/07/27 01:42:57;;;;;;;3.75;2.45;;;;;;;;;;4978758;28;20200;-88
2022/07/27 01:45:24;;;;;;;3.53;2.38;;;;;;;;;;4972966;28;20226;-88
2022/07/27 01:47:51;;;;;;;3.05;2.30;;;;;;;;;;4972593;28;20294;-88
2022/07/27 01:50:19;;;;;;;2.75;2.38;;;;;;;;;;4973000;28;20259;-88
2022/07/27 01:52:49;;;;;;;3.83;2.50;;;;;;;;;;4972780;28;20204;-89
2022/07/27 01:55:18;;;;;;;3.63;2.30;;;;;;;;;;4973051;28;20274;-88
2022/07/27 01:57:45;;;;;;;3.58;2.47;;;;;;;;;;4972791;28;20723;-88
2022/07/27 02:00:13;;;;;;;4.13;2.70;;;;;;;;;;4972554;28;20681;-88
2022/07/27 02:02:46;;;;;;;3.63;2.30;;;;;;;;;;4973182;28;20567;-88
2022/07/27 02:05:13;;;;;;;2.95;2.20;;;;;;;;;;4984668;28;20219;-88
2022/07/27 02:07:41;;;;;;;3.25;2.40;;;;;;;;;;4973884;28;20278;-87
2022/07/27 02:10:08;;;;;;;3.17;2.28;;;;;;;;;;4991878;28;20231;-88
2022/07/27 02:12:36;;;;;;;2.28;2.00;;;;;;;;;;4972829;28;20200;-88
2022/07/27 02:15:04;;;;;;;3.88;2.70;;;;;;;;;;4973318;28;20239;-88
2022/07/27 02:17:34;;;;;;;3.35;2.40;;;;;;;;;;4972672;28;20287;-88
2022/07/27 02:20:03;;;;;;;3.55;2.22;;;;;;;;;;4972858;28;20330;-89
2022/07/27 02:22:32;;;;;;;3.40;2.30;;;;;;;;;;4972124;28;20208;-88
2022/07/27 02:25:00;;;;;;;4.55;2.80;;;;;;;;;;4973287;28;20291;-88
2022/07/27 02:27:27;;;;;;;3.30;2.38;;;;;;;;;;4974361;28;20227;-88
2022/07/27 02:29:56;;;;;;;4.07;2.47;;;;;;;;;;4976537;28;20253;-88
2022/07/27 02:32:24;;;;;;;2.75;2.40;;;;;;;;;;4982699;28;20208;-88
2022/07/27 02:34:51;;;;;;;2.75;2.15;;;;;;;;;;4990902;28;20203;-87
2022/07/27 02:37:22;;;;;;;2.58;2.20;;;;;;;;;;4980441;28;20267;-87
2022/07/27 02:39:49;;;;;;;3.65;2.53;;;;;;;;;;4992065;28;20317;-87
2022/07/27 02:42:16;;;;;;;2.58;2.38;;;;;;;;;;4983975;28;20274;-87
2022/07/27 02:44:44;;;;;;;2.63;2.42;;;;;;;;;;4989300;28;20298;-87
2022/07/27 02:47:12;;;;;;;2.78;2.00;;;;;;;;;;4985511;28;20223;-87
2022/07/27 02:49:39;;;;;;;2.95;2.20;;;;;;;;;;4981068;28;20228;-88
2022/07/27 02:52:07;;;;;;;2.47;2.00;;;;;;;;;;4978730;28;20234;-87
2022/07/27 02:54:34;;;;;;;3.40;2.53;;;;;;;;;;4992919;28;20200;-88
2022/07/27 02:57:03;;;;;;;3.08;2.28;;;;;;;;;;4988540;28;20234;-88
2022/07/27 02:59:30;;;;;;;3.05;2.45;;;;;;;;;;4994611;28;20231;-87
2022/07/27 03:01:58;;;;;;;3.00;2.30;;;;;;;;;;4982614;28;20203;-88
2022/07/27 03:04:26;;;;;;;2.63;2.20;;;;;;;;;;4992167;28;20294;-88
2022/07/27 03:06:54;;;;;;;4.82;2.47;;;;;;;;;;4982107;28;20236;-88
2022/07/27 03:09:21;;;;;;;2.65;2.00;;;;;;;;;;4986601;28;20224;-88
2022/07/27 03:11:48;;;;;;;2.40;2.20;;;;;;;;;;4977013;28;20294;-88
2022/07/27 03:14:18;;;;;;;2.45;2.25;;;;;;;;;;4987499;28;20211;-87
2022/07/27 03:16:45;;;;;;;2.53;2.20;;;;;;;;;;4987392;28;20211;-87
2022/07/27 03:19:13;;;;;;;3.45;2.33;;;;;;;;;;4975802;28;20324;-88
2022/07/27 03:21:44;;;;;;;2.30;1.92;;;;;;;;;;4978981;28;20215;-88
2022/07/27 03:24:11;;;;;;;2.25;2.05;;;;;;;;;;4986880;28;20227;-88
2022/07/27 03:26:38;;;;;;;2.03;1.92;;;;;;;;;;5031463;23;20264;-81
2022/07/27 03:29:06;;;;;;;2.58;2.03;;;;;;;;;;5035464;28;20289;-80
2022/07/27 03:31:33;;;;;;;3.78;2.10;;;;;;;;;;5048023;28;20230;-79
2022/07/27 03:34:00;;;;;;;3.38;2.25;;;;;;;;;;5042183;28;20233;-80
2022/07/27 03:36:27;;;;;;;2.50;2.17;;;;;;;;;;5033414;28;20202;-81
2022/07/27 03:38:56;;;;;;;2.33;2.13;;;;;;;;;;5014489;28;20245;-81
2022/07/27 03:41:23;;;;;;;4.15;2.25;;;;;;;;;;5016987;28;20622;-80
2022/07/27 03:43:50;;;;;;;2.65;2.20;;;;;;;;;;5016993;28;20294;-80
2022/07/27 03:46:18;;;;;;;2.42;2.22;;;;;;;;;;5014177;28;20302;-80
2022/07/27 03:48:45;;;;;;;2.40;2.20;;;;;;;;;;5022956;28;20297;-81
2022/07/27 03:51:12;;;;;;;2.30;2.10;;;;;;;;;;5023590;28;20237;-80
2022/07/27 03:53:39;;;;;;;2.50;2.30;;;;;;;;;;5021874;28;20237;-81
2022/07/27 03:56:08;;;;;;;2.20;2.00;;;;;;;;;;5015388;28;20216;-80
2022/07/27 03:58:35;;;;;;;2.90;2.33;;;;;;;;;;5022198;28;20253;-81
2022/07/27 04:01:02;;;;;;;1.85;1.73;;;;;;;;;;5027575;28;20297;-80
2022/07/27 04:03:30;;;;;;;1.98;1.80;;;;;;;;;;5022226;28;20240;-81
2022/07/27 04:05:58;;;;;;;2.40;2.20;;;;;;;;;;5034215;28;20263;-80
2022/07/27 04:08:25;;;;;;;2.30;2.10;;;;;;;;;;5015237;28;20230;-80
2022/07/27 04:10:53;;;;;;;2.17;1.98;;;;;;;;;;5015606;28;20293;-80
2022/07/27 04:13:21;;;;;;;2.10;2.00;;;;;;;;;;5034517;28;20689;-79
2022/07/27 04:15:49;;;;;;;2.92;2.30;;;;;;;;;;5025149;28;20234;-80
2022/07/27 04:18:16;;;;;;;2.33;2.10;;;;;;;;;;5027872;28;20324;-81
2022/07/27 04:20:43;;;;;;;2.15;1.98;;;;;;;;;;5026566;28;20642;-79
2022/07/27 04:23:11;;;;;;;2.20;1.92;;;;;;;;;;5015193;28;20293;-81
2022/07/27 04:25:38;;;;;;;2.13;1.95;;;;;;;;;;5021153;28;20256;-80
2022/07/27 04:28:05;;;;;;;2.17;1.98;;;;;;;;;;5020489;28;20352;-79
2022/07/27 04:30:34;;;;;;;2.00;1.90;;;;;;;;;;5008699;28;20234;-80
2022/07/27 04:33:01;;;;;;;2.25;2.10;;;;;;;;;;5015036;28;20289;-81
2022/07/27 04:35:28;;;;;;;2.58;2.33;;;;;;;;;;5020711;28;20594;-81
2022/07/27 04:37:56;;;;;;;3.03;2.17;;;;;;;;;;5015446;28;20281;-79
2022/07/27 04:40:23;;;;;;;2.45;2.25;;;;;;;;;;5013426;28;20222;-82
2022/07/27 04:42:50;;;;;;;2.45;2.25;;;;;;;;;;5007871;28;20226;-79
2022/07/27 04:45:18;;;;;;;1.92;1.83;;;;;;;;;;5016917;28;20207;-82
2022/07/27 04:47:47;;;;;;;3.40;2.20;;;;;;;;;;5007067;28;20222;-81
2022/07/27 04:50:15;;;;;;;2.40;2.22;;;;;;;;;;5012738;28;20305;-81
2022/07/27 04:52:42;;;;;;;1.90;1.80;;;;;;;;;;5013608;28;20289;-81
2022/07/27 04:55:10;;;;;;;2.10;2.00;;;;;;;;;;5016773;28;20280;-81
2022/07/27 04:57:40;;;;;;;2.53;2.10;;;;;;;;;;5011050;28;20230;-82
2022/07/27 05:00:09;;;;;;;2.28;1.92;;;;;;;;;;5020329;28;20202;-81
2022/07/27 05:02:39;;;;;;;2.30;2.10;;;;;;;;;;5008996;28;20226;-81
2022/07/27 05:05:08;;;;;;;3.25;2.35;;;;;;;;;;5012125;28;20213;-83
2022/07/27 05:07:36;;;;;;;3.33;2.55;;;;;;;;;;5014272;28;20274;-84
2022/07/27 05:10:03;;;;;;;3.25;2.35;;;;;;;;;;5012467;28;20222;-81
2022/07/27 05:12:31;;;;;;;5.10;2.90;;;;;;;;;;5016963;28;20199;-80
2022/07/27 05:14:58;;;;;;;6.43;3.08;;;;;;;;;;5019711;28;20247;-81
2022/07/27 05:17:25;;;;;;;3.88;2.78;;;;;;;;;;5012896;28;20630;-80
2022/07/27 05:19:53;;;;;;;2.92;2.63;;;;;;;;;;5012932;28;20237;-83
2022/07/27 05:22:21;;;;;;;5.25;2.80;;;;;;;;;;5019622;28;20290;-80
2022/07/27 05:24:49;;;;;;;4.90;2.60;;;;;;;;;;5029066;28;20214;-81
2022/07/27 05:27:16;;;;;;;4.00;2.60;;;;;;;;;;5022620;28;20253;-81
2022/07/27 05:29:46;;;;;;;5.82;2.80;;;;;;;;;;5023525;28;20245;-81
2022/07/27 05:32:13;;;;;;;3.80;2.90;;;;;;;;;;5016429;28;20297;-82
2022/07/27 05:34:42;;;;;;;3.38;2.78;;;;;;;;;;5012568;28;20227;-81
2022/07/27 05:37:09;;;;;;;3.42;2.47;;;;;;;;;;5013200;28;20238;-80
2022/07/27 05:39:41;;;;;;;5.10;2.80;;;;;;;;;;5011518;28;20230;-80
2022/07/27 05:42:08;;;;;;;2.85;2.65;;;;;;;;;;5009184;28;20201;-81
2022/07/27 05:44:35;;;;;;;5.25;2.70;;;;;;;;;;5009231;28;20230;-80
2022/07/27 05:47:03;;;;;;;4.13;2.50;;;;;;;;;;5005446;28;20316;-81
2022/07/27 05:49:30;;;;;;;2.95;2.50;;;;;;;;;;5004962;28;20226;-81
2022/07/27 05:51:57;;;;;;;3.38;2.75;;;;;;;;;;5005873;28;20194;-81
2022/07/27 05:54:24;;;;;;;3.10;2.70;;;;;;;;;;5008475;28;20240;-80
2022/07/27 05:56:53;;;;;;;4.00;2.70;;;;;;;;;;5014355;28;20326;-79
2022/07/27 05:59:21;;;;;;;3.58;2.50;;;;;;;;;;5004701;28;20311;-84
2022/07/27 06:01:48;;;;;;;4.57;3.00;;;;;;;;;;5015158;28;20264;-83
2022/07/27 06:04:15;;;;;;;2.90;2.70;;;;;;;;;;5028349;28;20301;-81
2022/07/27 06:09:27;;;;;;;3.40;2.95;;;;;;;;;;5017212;28;20197;-81
2022/07/27 06:11:56;;;;;;;3.92;2.88;;;;;;;;;;5016670;28;20229;-81
2022/07/27 06:14:29;;;;;;;2.90;2.70;;;;;;;;;;5021393;28;20266;-82
2022/07/27 06:16:57;;;;;;;3.05;2.70;;;;;;;;;;5025259;28;20219;-81
2022/07/27 06:19:24;;;;;;;4.22;2.80;;;;;;;;;;5018303;28;20246;-81
2022/07/27 06:21:51;;;;;;;2.80;2.60;;;;;;;;;;5033839;28;20213;-81
2022/07/27 06:24:18;;;;;;;3.67;2.58;;;;;;;;;;5037379;28;20213;-81
2022/07/27 06:26:46;;;;;;;2.80;2.60;;;;;;;;;;5032095;28;20260;-80
2022/07/27 06:29:15;;;;;;;2.75;2.50;;;;;;;;;;5038595;28;20234;-81
2022/07/27 06:31:42;;;;;;;2.83;2.63;;;;;;;;;;5035820;28;20226;-82
2022/07/27 06:34:09;;;;;;;2.95;2.67;;;;;;;;;;5020664;28;20238;-84
2022/07/27 06:36:38;;;;;;;3.17;2.88;;;;;;;;;;5030733;28;20253;-84
2022/07/27 06:39:05;;;;;;;3.78;2.72;;;;;;;;;;5022637;28;20234;-84
2022/07/27 06:41:33;;;;;;;2.58;2.35;;;;;;;;;;5019977;28;20264;-83
2022/07/27 06:44:00;;;;;;;3.20;3.00;;;;;;;;;;5019857;28;20210;-84
2022/07/27 06:46:31;;;;;;;3.20;2.90;;;;;;;;;;5026097;28;20206;-83
2022/07/27 06:48:58;;;;;;;2.95;2.70;;;;;;;;;;5035384;28;20252;-82
2022/07/27 06:51:26;;;;;;;3.30;3.00;;;;;;;;;;5023184;28;20213;-82
2022/07/27 06:53:54;;;;;;;3.13;2.90;;;;;;;;;;5038318;28;20205;-84
2022/07/27 06:56:22;;;;;;;2.67;2.47;;;;;;;;;;5038787;28;20222;-83
2022/07/27 06:58:50;;;;;;;2.60;2.50;;;;;;;;;;5039059;28;20273;-82
2022/07/27 07:01:17;;;;;;;2.80;2.60;;;;;;;;;;5028402;28;20253;-83
2022/07/27 07:03:46;;;;;;;3.05;2.50;;;;;;;;;;5018437;28;20210;-84
2022/07/27 07:06:14;;;;;;;3.17;2.88;;;;;;;;;;5017482;28;20211;-84
2022/07/27 07:08:44;;;;;;;2.92;2.72;;;;;;;;;;5017588;28;20226;-84
2022/07/27 07:11:12;;;;;;;3.08;2.78;;;;;;;;;;5020334;28;20245;-84
2022/07/27 07:13:40;;;;;;;2.92;2.70;;;;;;;;;;5016188;28;20297;-86
2022/07/27 07:16:07;;;;;;;2.92;2.72;;;;;;;;;;5015883;28;20206;-86
2022/07/27 07:18:34;;;;;;;2.92;2.72;;;;;;;;;;5016181;28;20292;-86
2022/07/27 07:21:03;;;;;;;3.17;2.58;;;;;;;;;;5015117;28;20273;-86
2022/07/27 07:23:33;;;;;;;3.40;2.75;;;;;;;;;;5019708;28;20214;-87
2022/07/27 07:26:00;;;;;;;4.38;3.00;;;;;;;;;;5034876;28;20232;-85
2022/07/27 07:28:27;;;;;;;5.30;3.60;;;;;;;;;;5034214;28;20280;-84
2022/07/27 07:30:55;;;;;;;3.53;2.97;;;;;;;;;;5025564;28;20227;-84
2022/07/27 07:33:22;;;;;;;2.70;2.47;;;;;;;;;;5016083;28;20221;-84
2022/07/27 07:35:51;;;;;;;3.97;2.70;;;;;;;;;;5026225;28;20209;-84
2022/07/27 07:38:20;;;;;;;3.17;2.88;;;;;;;;;;5034097;28;20258;-84
2022/07/27 07:40:47;;;;;;;3.85;2.75;;;;;;;;;;5028304;28;20245;-85
2022/07/27 07:43:15;;;;;;;3.45;2.90;;;;;;;;;;5021051;28;20297;-85
2022/07/27 07:45:43;;;;;;;3.05;2.80;;;;;;;;;;5025634;28;20210;-86
2022/07/27 07:48:10;;;;;;;2.90;2.63;;;;;;;;;;5014988;28;20240;-86
2022/07/27 07:50:38;;;;;;;3.53;3.00;;;;;;;;;;5025775;28;20260;-86
2022/07/27 07:53:05;;;;;;;2.97;2.78;;;;;;;;;;5028688;28;20218;-85
2022/07/27 07:55:34;;;;;;;4.32;2.88;;;;;;;;;;5014842;28;20215;-86
2022/07/27 07:58:03;;;;;;;2.67;2.47;;;;;;;;;;5025858;28;20245;-85
2022/07/27 08:00:30;;;;;;;2.95;2.75;;;;;;;;;;5034078;28;20248;-85
2022/07/27 08:02:58;;;;;;;2.90;2.70;;;;;;;;;;5034258;28;20221;-84
2022/07/27 08:05:26;;;;;;;2.75;2.55;;;;;;;;;;5022269;28;20265;-84
2022/07/27 08:07:54;;;;;;;3.28;2.55;;;;;;;;;;5014856;28;20278;-84
2022/07/27 08:10:22;;;;;;;4.47;2.72;;;;;;;;;;5014267;28;20708;-84
2022/07/27 08:12:52;;;;;;;3.10;2.80;;;;;;;;;;5014877;28;20229;-82
2022/07/27 08:15:19;;;;;;;2.95;2.60;;;;;;;;;;5014365;28;20643;-84
2022/07/27 08:17:47;;;;;;;3.30;3.05;;;;;;;;;;5023452;28;20218;-84
2022/07/27 08:20:17;;;;;;;4.18;2.63;;;;;;;;;;5020505;28;20261;-84
2022/07/27 08:22:45;;;;;;;3.00;2.80;;;;;;;;;;5013771;28;20206;-85
2022/07/27 08:25:13;;;;;;;3.15;2.92;;;;;;;;;;5031613;28;20595;-85
2022/07/27 08:27:40;;;;;;;2.90;2.70;;;;;;;;;;5020478;28;20312;-87
2022/07/27 08:30:11;;;;;;;3.03;2.80;;;;;;;;;;5013572;28;20213;-87
2022/07/27 08:32:48;;;;;;;3.13;2.80;;;;;;;;;;5013740;28;20686;-86
2022/07/27 08:35:16;;;;;;;5.25;2.67;;;;;;;;;;5027071;28;20229;-84
2022/07/27 08:37:44;;;;;;;3.53;3.22;;;;;;;;;;5019183;28;20335;-84
2022/07/27 08:40:11;;;;;;;3.22;2.97;;;;;;;;;;5020707;28;20292;-85
2022/07/27 08:42:40;;;;;;;3.22;3.03;;;;;;;;;;5014539;28;20256;-84
2022/07/27 08:45:08;;;;;;;3.63;2.80;;;;;;;;;;5029331;28;20252;-85
2022/07/27 08:47:38;;;;;;;3.22;2.70;;;;;;;;;;5020706;28;20275;-84
2022/07/27 08:50:21;;;;;;;2.90;2.70;;;;;;;;;;5022566;28;20212;-83
2022/07/27 08:52:49;;;;;;;3.55;2.67;;;;;;;;;;5033425;28;20201;-85
2022/07/27 08:55:16;;;;;;;3.13;2.90;;;;;;;;;;5032802;28;20736;-85
2022/07/27 08:57:43;;;;;;;2.80;2.58;;;;;;;;;;5033218;28;20287;-84
2022/07/27 09:00:12;;;;;;;3.00;2.67;;;;;;;;;;5030798;28;20678;-84
2022/07/27 09:02:41;;;;;;;2.72;2.53;;;;;;;;;;5022993;28;20230;-84
2022/07/27 09:05:09;;;;;;;2.92;2.72;;;;;;;;;;5033483;28;20210;-84
2022/07/27 09:07:36;;;;;;;3.10;2.85;;;;;;;;;;5016439;28;20254;-84
2022/07/27 09:10:04;;;;;;;2.88;2.67;;;;;;;;;;5014572;28;20261;-84
2022/07/27 09:12:34;;;;;;;2.88;2.63;;;;;;;;;;5013900;28;20221;-84
2022/07/27 09:15:05;;;;;;;3.15;2.90;;;;;;;;;;5014244;28;20218;-84
2022/07/27 09:17:33;;;;;;;2.97;2.60;;;;;;;;;;5014296;28;20318;-84
2022/07/27 09:20:03;;;;;;;4.03;3.10;;;;;;;;;;5013708;28;20658;-84
2022/07/27 09:22:40;;;;;;;3.05;2.85;;;;;;;;;;5013756;28;20669;-85
2022/07/27 09:25:11;;;;;;;4.05;3.15;;;;;;;;;;5018989;28;20206;-84
2022/07/27 09:27:38;;;;;;;3.30;2.80;;;;;;;;;;5031815;28;20305;-84
2022/07/27 09:30:07;;;;;;;3.22;2.90;;;;;;;;;;5032795;28;20297;-84
2022/07/27 09:32:34;;;;;;;5.10;2.80;;;;;;;;;;5026678;28;20206;-84
2022/07/27 09:35:16;;;;;;;4.80;2.65;;;;;;;;;;5013616;28;20298;-84
2022/07/27 09:37:43;;;;;;;3.10;2.80;;;;;;;;;;5012183;28;20713;-84
2022/07/27 09:40:11;;;;;;;4.80;2.83;;;;;;;;;;5025731;28;20233;-84
2022/07/27 09:42:38;;;;;;;2.83;2.63;;;;;;;;;;5013629;28;20321;-84
2022/07/27 09:45:27;;;;;;;3.30;3.00;;;;;;;;;;5013889;28;20678;-85
2022/07/27 09:47:54;;;;;;;4.50;2.78;;;;;;;;;;5021217;28;20313;-85
2022/07/27 09:50:25;;;;;;;3.03;2.75;;;;;;;;;;5015628;28;20217;-84
2022/07/27 10:42:48;;;;;;;4.05;3.40;;;;;;;;;;4866471;29;20238;-86
2022/07/27 12:06:21;;;;;;;2.03;1.90;;;;;;;;;;5115705;23;20220;-85
2022/07/27 16:22:35;;;;;;;1.73;1.63;;;;;;;;;;3027299;22;20525;-76
2022/07/27 16:25:07;;;;;;;2.25;1.58;;;;;;;;;;5030009;28;20229;-83
2022/07/27 16:27:34;;;;;;;1.95;1.80;;;;;;;;;;5037342;28;20206;-83
2022/07/27 16:30:02;;;;;;;1.65;1.55;;;;;;;;;;5041955;28;20261;-83
2022/07/27 16:32:31;;;;;;;1.58;1.40;;;;;;;;;;5028536;28;20226;-84
2022/07/27 16:35:00;;;;;;;2.13;1.60;;;;;;;;;;5022186;28;20210;-83
2022/07/27 16:37:27;;;;;;;1.65;1.55;;;;;;;;;;5023235;28;20293;-84
2022/07/27 16:39:55;;;;;;;2.15;1.58;;;;;;;;;;5022441;28;20214;-83
2022/07/27 16:42:27;;;;;;;2.03;1.70;;;;;;;;;;5022777;28;20222;-83
2022/07/27 16:44:55;;;;;;;2.53;1.80;;;;;;;;;;5021947;28;20273;-83
2022/07/27 16:47:22;;;;;;;1.98;1.45;;;;;;;;;;5022806;28;20318;-83
2022/07/27 16:49:49;;;;;;;1.55;1.45;;;;;;;;;;5024731;28;20227;-83
2022/07/27 16:52:16;;;;;;;1.58;1.48;;;;;;;;;;5025336;28;20230;-83
2022/07/27 16:54:47;;;;;;;2.47;1.60;;;;;;;;;;5025115;28;20203;-83
2022/07/27 16:57:22;;;;;;;1.40;1.30;;;;;;;;;;5021253;28;20225;-83
2022/07/27 16:59:51;;;;;;;1.67;1.58;;;;;;;;;;5024001;28;20264;-84
2022/07/27 17:02:21;;;;;;;2.00;1.50;;;;;;;;;;5024792;28;20624;-83
2022/07/27 17:04:49;;;;;;;2.28;1.50;;;;;;;;;;5024068;28;20226;-83
2022/07/27 17:07:20;;;;;;;2.28;1.52;;;;;;;;;;5023354;28;20246;-83
2022/07/27 17:09:49;;;;;;;3.38;1.50;;;;;;;;;;5024844;28;20219;-84
2022/07/27 17:12:16;;;;;;;1.70;1.42;;;;;;;;;;5023841;28;20265;-84
2022/07/27 17:14:44;;;;;;;1.77;1.60;;;;;;;;;;5023616;28;20214;-84
2022/07/27 17:17:13;;;;;;;1.80;1.40;;;;;;;;;;5023285;28;20202;-82
2022/07/27 17:19:48;;;;;;;1.58;1.48;;;;;;;;;;5023994;28;20206;-83
2022/07/27 17:22:15;;;;;;;1.60;1.50;;;;;;;;;;5029390;28;20234;-83
2022/07/27 17:24:49;;;;;;;1.50;1.40;;;;;;;;;;5026687;28;20217;-84
2022/07/27 17:27:18;;;;;;;1.67;1.58;;;;;;;;;;5022044;28;20732;-83
2022/07/27 17:29:45;;;;;;;1.75;1.60;;;;;;;;;;5028812;28;20227;-83
2022/07/27 17:32:14;;;;;;;1.60;1.50;;;;;;;;;;5028216;28;20226;-83
2022/07/27 17:34:44;;;;;;;1.75;1.42;;;;;;;;;;5027915;28;20207;-83
2022/07/27 17:37:15;;;;;;;1.73;1.50;;;;;;;;;;5027248;28;20211;-83
2022/07/27 17:39:42;;;;;;;1.50;1.40;;;;;;;;;;5027316;28;20214;-83
2022/07/27 17:42:10;;;;;;;2.75;1.55;;;;;;;;;;5024598;28;20253;-83
2022/07/27 17:44:38;;;;;;;2.22;1.70;;;;;;;;;;5021098;28;20210;-81
2022/07/27 17:47:05;;;;;;;1.73;1.38;;;;;;;;;;5021475;28;20214;-83
2022/07/27 17:49:36;;;;;;;2.03;1.60;;;;;;;;;;5022413;28;20233;-82
2022/07/27 17:52:05;;;;;;;1.65;1.55;;;;;;;;;;5021778;28;20234;-83
2022/07/27 17:54:38;;;;;;;2.05;1.40;;;;;;;;;;5021618;28;20216;-83
2022/07/27 17:57:07;;;;;;;1.88;1.48;;;;;;;;;;5022971;28;20248;-84
2022/07/27 17:59:34;;;;;;;1.50;1.40;;;;;;;;;;5026274;28;20293;-84
2022/07/27 18:02:03;;;;;;;1.60;1.50;;;;;;;;;;5024962;28;20234;-83
2022/07/27 18:04:33;;;;;;;2.13;1.48;;;;;;;;;;5014703;28;20214;-84
2022/07/27 18:07:08;;;;;;;1.70;1.60;;;;;;;;;;5026786;28;20234;-83
2022/07/27 18:09:40;;;;;;;2.20;2.00;;;;;;;;;;5027151;28;20238;-83
2022/07/27 18:12:08;;;;;;;2.40;2.05;;;;;;;;;;5025715;28;20234;-83
2022/07/27 18:14:36;;;;;;;2.78;2.10;;;;;;;;;;5018877;28;20237;-83
2022/07/27 18:17:14;;;;;;;2.10;1.90;;;;;;;;;;5020505;28;20229;-82
2022/07/27 18:19:46;;;;;;;2.15;1.85;;;;;;;;;;5027137;28;20207;-83
2022/07/27 18:22:18;;;;;;;2.58;1.60;;;;;;;;;;5018997;28;20261;-84
2022/07/27 18:24:51;;;;;;;3.30;1.63;;;;;;;;;;5015094;28;20297;-84
2022/07/27 18:27:18;;;;;;;1.92;1.75;;;;;;;;;;5020196;28;20206;-84
2022/07/27 18:29:49;;;;;;;1.65;1.55;;;;;;;;;;5019781;28;20232;-83
2022/07/27 18:32:16;;;;;;;1.92;1.60;;;;;;;;;;5016025;28;20223;-84
2022/07/27 18:34:44;;;;;;;2.15;1.67;;;;;;;;;;5018446;28;20198;-83
2022/07/27 18:37:13;;;;;;;1.90;1.75;;;;;;;;;;5019027;28;20217;-83
2022/07/27 18:39:44;;;;;;;2.15;1.67;;;;;;;;;;5020159;28;20217;-83
2022/07/27 18:42:18;;;;;;;2.22;1.60;;;;;;;;;;5020476;28;20277;-84
2022/07/27 18:44:50;;;;;;;1.60;1.50;;;;;;;;;;5017666;28;20337;-84
2022/07/27 18:47:18;;;;;;;1.60;1.50;;;;;;;;;;5019847;28;20221;-84
2022/07/27 18:52:29;;;;;;;1.73;1.50;;;;;;;;;;4988964;28;20745;-84
2022/07/27 18:55:23;;;;;;;2.38;1.40;;;;;;;;;;5009768;28;20213;-83
2022/07/27 18:57:58;;;;;;;1.95;1.42;;;;;;;;;;5011823;28;20226;-83
2022/07/27 19:00:33;;;;;;;1.60;1.40;;;;;;;;;;5021152;28;20202;-83
2022/07/27 19:03:32;;;;;;;2.20;1.55;;;;;;;;;;5016803;28;20309;-83
2022/07/27 19:09:12;;;;;;;1.88;1.48;;;;;;;;;;5024811;28;20210;-83
2022/07/27 19:11:39;;;;;;;2.42;1.40;;;;;;;;;;5020022;28;20237;-83
2022/07/27 19:14:12;;;;;;;2.67;1.50;;;;;;;;;;5025954;28;20210;-83
2022/07/27 19:26:01;;;;;;;;;;;;;;;;;;;;;
2022/07/27 19:28:29;;;;;;;1.88;1.52;;;;;;;;;;5021320;28;20281;-84
2022/07/27 19:31:16;;;;;;;2.78;1.33;;;;;;;;;;5018831;28;20220;-83
2022/07/27 19:33:46;;;;;;;2.63;1.80;;;;;;;;;;5021807;28;20202;-83
2022/07/27 19:36:14;;;;;;;2.90;1.75;;;;;;;;;;5030201;28;20202;-83
2022/07/27 19:38:44;;;;;;;2.35;1.48;;;;;;;;;;5020384;28;20281;-83
2022/07/27 19:41:11;;;;;;;2.10;1.52;;;;;;;;;;5022673;28;20218;-83
2022/07/27 19:43:50;;;;;;;2.60;1.50;;;;;;;;;;5022607;28;20289;-83
2022/07/27 19:46:22;;;;;;;1.85;1.50;;;;;;;;;;5021496;28;20207;-83
2022/07/27 19:49:05;;;;;;;2.75;1.50;;;;;;;;;;5025250;28;20211;-83
2022/07/27 19:51:32;;;;;;;2.60;1.70;;;;;;;;;;5009227;28;20241;-82
2022/07/27 19:53:59;;;;;;;1.67;1.50;;;;;;;;;;5023816;28;20206;-83
2022/07/27 19:56:30;;;;;;;2.08;1.52;;;;;;;;;;5015400;28;20210;-83
2022/07/27 19:59:00;;;;;;;3.58;1.90;;;;;;;;;;5021196;28;20210;-83
2022/07/27 20:01:33;;;;;;;2.08;1.40;;;;;;;;;;5022586;28;20261;-83
2022/07/27 20:04:02;;;;;;;3.75;1.90;;;;;;;;;;5019926;28;20207;-83
2022/07/27 20:06:30;;;;;;;1.88;1.60;;;;;;;;;;5017533;28;20346;-83
2022/07/27 20:08:58;;;;;;;2.78;1.63;;;;;;;;;;5013977;28;20234;-83
2022/07/27 20:11:27;;;;;;;2.88;1.55;;;;;;;;;;5019187;28;20229;-83
2022/07/27 20:13:54;;;;;;;2.28;1.65;;;;;;;;;;5004013;28;20210;-83
2022/07/27 20:16:21;;;;;;;2.28;1.60;;;;;;;;;;5011448;28;20202;-83
2022/07/27 20:18:50;;;;;;;2.78;1.60;;;;;;;;;;5026980;28;20194;-83
2022/07/27 20:21:19;;;;;;;1.83;1.55;;;;;;;;;;5027797;28;20218;-83
2022/07/27 20:23:47;;;;;;;2.15;1.70;;;;;;;;;;5021185;28;20202;-83
2022/07/27 20:26:14;;;;;;;2.28;1.90;;;;;;;;;;5027461;28;20215;-83
2022/07/27 20:28:44;;;;;;;2.17;1.48;;;;;;;;;;5023159;28;20206;-83
2022/07/27 20:33:44;;;;;;;2.55;1.73;;;;;;;;;;5032593;28;20224;-84
2022/07/27 20:36:12;;;;;;;2.28;1.63;;;;;;;;;;5023759;28;20202;-85
2022/07/27 20:38:39;;;;;;;2.42;1.67;;;;;;;;;;5039615;28;20208;-84
2022/07/27 20:41:10;;;;;;;2.47;1.52;;;;;;;;;;5031801;28;20244;-83
2022/07/27 20:43:37;;;;;;;1.80;1.55;;;;;;;;;;5058029;28;20660;-84
2022/07/27 20:46:04;;;;;;;2.05;1.55;;;;;;;;;;5049803;28;20201;-84
2022/07/27 20:48:32;;;;;;;2.38;1.67;;;;;;;;;;5055337;28;20206;-85
2022/07/27 20:50:59;;;;;;;2.20;1.38;;;;;;;;;;5060148;28;20221;-85
2022/07/27 20:53:28;;;;;;;2.67;1.70;;;;;;;;;;5043828;28;20229;-84
2022/07/27 20:55:55;;;;;;;2.45;2.00;;;;;;;;;;5050829;28;20228;-84
2022/07/27 20:58:23;;;;;;;3.20;1.75;;;;;;;;;;5047384;28;20201;-85
2022/07/27 21:00:50;;;;;;;2.50;1.45;;;;;;;;;;5051364;28;20227;-84
2022/07/27 21:03:17;;;;;;;1.70;1.50;;;;;;;;;;5053148;28;20201;-84
2022/07/27 21:05:45;;;;;;;2.83;1.88;;;;;;;;;;5041346;28;20206;-84
2022/07/27 21:08:12;;;;;;;2.28;1.50;;;;;;;;;;5049842;28;20206;-84
2022/07/27 21:10:41;;;;;;;1.65;1.55;;;;;;;;;;5044785;28;20260;-83
2022/07/27 21:13:08;;;;;;;3.22;1.60;;;;;;;;;;5042609;28;20225;-84
2022/07/27 21:15:35;;;;;;;2.60;1.80;;;;;;;;;;5048310;28;20247;-84
2022/07/27 21:18:04;;;;;;;2.35;2.10;;;;;;;;;;5030787;28;20255;-83
2022/07/27 21:20:34;;;;;;;4.57;1.90;;;;;;;;;;5047191;28;20201;-84
2022/07/27 21:25:47;;;;;;;5.25;2.60;;;;;;;;;;5052171;28;20200;-84
2022/07/27 21:28:14;;;;;;;5.38;3.30;;;;;;;;;;5044284;28;20201;-85
2022/07/27 21:30:42;;;;;;;5.15;3.35;;;;;;;;;;5044414;28;20280;-84
2022/07/27 21:33:09;;;;;;;7.15;3.25;;;;;;;;;;5045809;28;20213;-83
2022/07/27 21:35:37;;;;;;;7.40;3.60;;;;;;;;;;5047162;28;20233;-84
2022/07/27 21:38:04;;;;;;;6.32;4.72;;;;;;;;;;5048758;28;20194;-84
2022/07/27 21:40:32;;;;;;;8.70;5.18;;;;;;;;;;5043064;28;20198;-83